EGPN/DND METAR and TAF weather

Enter ICAO airport designator
Station Type Date Time Source
EGPN METAR 2024/06/13 19:50 UTC NOAA

EGPN 131950Z 12008KT 9000 -RA FEW012 SCT032 BKN048 11/09 Q1000 RERA


Station Type Date Time Source
EGPN Decoded METAR 2024/06/13 19:50 UTC NOAA

Dundee / Riverside, United Kingdom (EGPN) 56-27N 003-01W
Jun 13, 2024 - 03:50 PM EDT / 2024.06.13 1950 UTC
Wind: from the ESE (120 degrees) at 9 MPH (8 KT):0
Visibility: 5 mile(s):0
Sky conditions: mostly cloudy
Weather: light rain
Temperature: 51 F (11 C)
Dew Point: 48 F (9 C)
Relative Humidity: 87%
Pressure (altimeter): 29.53 in. Hg (1000 hPa)
ob: EGPN 131950Z 12008KT 9000 -RA FEW012 SCT032 BKN048 11/09 Q1000 RERA
cycle: 20

Station Type Date Time Source
EGPN TAF 2022/02/20 18:37 UTC NOAA